Time;durP1;ratioP1;P1;durP2;ratioP2;P2;SDS_P1;SDS_P2;PMS_P1;PMS_P2;Temp;Humidity;BMP_temperature;BMP_pressure;BME280_temperature;BME280_humidity;BME280_pressure;Samples;Min_cycle;Max_cycle;Signal;HPM_P1;HPM_P2
2023/02/05 07:07:53;;;;;;;47.30;44.80;;;;;;;0.29;100.00;101907.09;5075676;27;20447;-80
2023/02/05 07:10:20;;;;;;;50.05;46.97;;;;;;;-1.08;100.00;101892.19;5061713;28;20094;-81
2023/02/05 07:12:47;;;;;;;44.88;42.28;;;;;;;0.72;100.00;101901.38;5062817;28;20053;-81
2023/02/05 07:15:14;;;;;;;48.17;45.17;;;;;;;-0.69;100.00;101880.84;5062163;28;20460;-80
2023/02/05 07:17:40;;;;;;;48.65;45.53;;;;;;;-0.40;100.00;101888.44;5066766;28;20526;-80
2023/02/05 07:20:08;;;;;;;49.42;46.47;;;;;;;1.03;100.00;101885.09;5069104;28;20102;-81
2023/02/05 07:22:35;;;;;;;48.65;45.72;;;;;;;-0.28;100.00;101885.00;5066921;28;20041;-80
2023/02/05 07:25:03;;;;;;;48.10;45.00;;;;;;;0.79;100.00;101907.84;5063948;28;20056;-80
2023/02/05 07:27:30;;;;;;;50.05;46.85;;;;;;;0.40;100.00;101897.56;5067238;28;20064;-81
2023/02/05 07:29:58;;;;;;;49.92;46.85;;;;;;;0.70;100.00;101891.03;4988459;28;20057;-81
2023/02/05 07:32:25;;;;;;;47.05;44.25;;;;;;;0.52;100.00;101890.59;5054241;28;20498;-81
2023/02/05 07:34:51;;;;;;;48.90;45.60;;;;;;;0.51;100.00;101898.53;5069158;28;20110;-81
2023/02/05 07:37:18;;;;;;;49.25;46.35;;;;;;;-0.13;100.00;101906.59;5068339;28;20048;-80
2023/02/05 07:39:45;;;;;;;47.92;44.90;;;;;;;0.34;100.00;101902.41;5065840;28;20484;-81
2023/02/05 07:42:13;;;;;;;48.33;45.50;;;;;;;1.22;100.00;101907.25;5067673;28;20052;-80
2023/02/05 07:44:39;;;;;;;50.78;47.60;;;;;;;0.54;100.00;101904.38;5070013;28;20068;-80
2023/02/05 07:47:06;;;;;;;49.80;46.70;;;;;;;1.09;100.00;101915.16;5068671;28;20041;-80
2023/02/05 07:49:33;;;;;;;49.28;46.35;;;;;;;1.28;100.00;101901.56;5068657;28;20411;-80
2023/02/05 07:51:59;;;;;;;50.28;47.28;;;;;;;1.80;100.00;101911.47;5068161;28;20071;-80
2023/02/05 07:54:26;;;;;;;51.72;48.60;;;;;;;1.31;100.00;101917.03;5065932;28;20045;-80
2023/02/05 07:56:54;;;;;;;52.33;48.80;;;;;;;1.73;100.00;101923.38;5064517;28;20053;-80
2023/02/05 07:59:22;;;;;;;50.60;47.45;;;;;;;1.26;100.00;101921.78;5068798;28;20139;-80
2023/02/05 08:01:49;;;;;;;49.88;46.95;;;;;;;1.37;100.00;101922.63;5058746;28;20118;-81
2023/02/05 08:04:15;;;;;;;50.58;47.17;;;;;;;2.36;100.00;101933.31;5049866;28;20561;-81
2023/02/05 08:06:42;;;;;;;50.25;47.15;;;;;;;1.89;100.00;101933.50;5051222;28;20059;-81
2023/02/05 08:11:50;;;;;;;48.35;45.45;;;;;;;2.73;100.00;101929.41;5088987;27;20408;-81
2023/02/05 08:14:17;;;;;;;48.30;45.40;;;;;;;2.81;100.00;101930.56;5074289;28;20048;-81
2023/02/05 08:16:44;;;;;;;48.17;45.08;;;;;;;2.41;100.00;101946.91;5074620;28;20098;-80
2023/02/05 08:19:14;;;;;;;48.97;46.08;;;;;;;2.73;100.00;101937.28;5074488;28;20049;-81
2023/02/05 08:21:41;;;;;;;49.92;46.90;;;;;;;2.84;100.00;101954.75;5073996;28;20102;-82
2023/02/05 08:24:08;;;;;;;50.95;47.83;;;;;;;2.62;100.00;101954.84;5070865;28;20045;-81
2023/02/05 08:26:35;;;;;;;49.38;46.38;;;;;;;3.02;100.00;101951.59;5072530;28;20465;-81
2023/02/05 08:29:04;;;;;;;50.00;46.90;;;;;;;2.94;100.00;101958.31;5076221;28;20049;-81
2023/02/05 08:31:30;;;;;;;50.75;47.50;;;;;;;3.25;100.00;101958.41;5074498;28;20045;-81
2023/02/05 08:33:58;;;;;;;48.60;45.78;;;;;;;3.14;100.00;101969.78;5074386;28;20060;-81
2023/02/05 08:36:25;;;;;;;49.55;46.50;;;;;;;3.50;100.00;101964.22;5074240;28;20106;-81
2023/02/05 08:38:52;;;;;;;50.30;47.00;;;;;;;3.57;100.00;101963.59;5074615;28;20078;-81
2023/02/05 08:41:19;;;;;;;52.45;49.00;;;;;;;2.88;100.00;101986.84;5072950;28;20040;-81
2023/02/05 08:43:48;;;;;;;50.97;47.85;;;;;;;3.77;100.00;101966.31;5072712;28;20472;-82
2023/02/05 08:46:20;;;;;;;51.45;48.25;;;;;;;3.47;100.00;101981.06;5073468;28;20509;-81
2023/02/05 08:48:47;;;;;;;51.42;48.22;;;;;;;3.84;100.00;101985.84;5067929;28;20567;-81
2023/02/05 08:51:15;;;;;;;49.53;46.47;;;;;;;4.10;100.00;101979.19;5072459;28;20049;-81
2023/02/05 08:53:42;;;;;;;48.80;45.90;;;;;;;3.59;100.00;101992.34;5072063;28;20102;-81
2023/02/05 08:56:10;;;;;;;49.90;46.70;;;;;;;3.10;100.00;101999.88;5069528;28;20048;-81
2023/02/05 08:58:37;;;;;;;51.08;47.97;;;;;;;3.39;100.00;101975.66;5069666;28;20079;-81
2023/02/05 09:01:06;;;;;;;50.90;47.90;;;;;;;4.09;100.00;101992.47;5069006;28;20053;-81
2023/02/05 09:03:48;;;;;;;52.22;49.00;;;;;;;3.75;100.00;101994.50;5075114;27;20784;-82
2023/02/05 09:06:16;;;;;;;52.80;49.45;;;;;;;3.76;100.00;101989.13;5050531;28;20107;-82
2023/02/05 09:08:42;;;;;;;52.08;48.53;;;;;;;4.08;100.00;101990.78;5045626;28;20136;-82
2023/02/05 09:11:12;;;;;;;50.30;47.30;;;;;;;4.32;100.00;101983.41;5046029;28;20474;-82
2023/02/05 09:13:39;;;;;;;52.75;49.35;;;;;;;4.27;100.00;101995.31;5048217;28;20050;-82
2023/02/05 09:16:06;;;;;;;49.40;46.42;;;;;;;4.52;100.00;101997.44;5047545;28;20044;-81
2023/02/05 09:18:33;;;;;;;51.42;47.95;;;;;;;4.48;100.00;101990.81;5051120;28;20053;-83
2023/02/05 09:21:05;;;;;;;51.72;48.42;;;;;;;5.43;100.00;101992.78;5045246;28;20049;-82
2023/02/05 09:23:32;;;;;;;;;;;;;;;5.42;100.00;102000.84;5039430;28;20585;-82
2023/02/05 09:25:59;;;;;;;51.28;48.28;;;;;;;5.21;100.00;102006.25;5058763;28;19947;-82
2023/02/05 09:28:26;;;;;;;49.70;46.88;;;;;;;4.48;100.00;101996.06;5057473;28;20132;-81
2023/02/05 09:30:52;;;;;;;50.85;47.85;;;;;;;4.74;100.00;101999.00;5056909;28;20505;-82
2023/02/05 09:33:19;;;;;;;50.50;47.50;;;;;;;5.04;100.00;101999.88;5054881;28;20044;-82
2023/02/05 09:35:46;;;;;;;49.70;46.70;;;;;;;5.02;100.00;101989.50;5047264;28;20103;-81
2023/02/05 09:38:16;;;;;;;48.67;45.75;;;;;;;5.15;100.00;101993.66;5058303;28;20049;-82
2023/02/05 09:40:53;;;;;;;48.92;46.03;;;;;;;5.31;100.00;102001.81;5051475;28;20107;-81
2023/02/05 09:43:35;;;;;;;51.22;48.22;;;;;;;4.79;100.00;101982.81;5037421;28;20111;-81
2023/02/05 09:46:10;;;;;;;51.33;48.15;;;;;;;4.43;100.00;101994.81;5037601;28;20107;-81
2023/02/05 09:48:51;;;;;;;51.67;48.50;;;;;;;4.12;100.00;101992.22;5054751;28;20103;-81
2023/02/05 09:51:21;;;;;;;52.83;49.42;;;;;;;3.83;100.00;101990.28;5053064;28;20046;-80
2023/02/05 09:53:56;;;;;;;51.17;48.08;;;;;;;4.18;100.00;101996.13;5055214;28;20042;-81
2023/02/05 09:56:24;;;;;;;52.55;49.38;;;;;;;3.64;100.00;101975.22;5036334;28;20045;-81
2023/02/05 09:58:53;;;;;;;52.45;49.35;;;;;;;2.73;100.00;101987.13;5040211;28;20041;-81
2023/02/05 10:01:28;;;;;;;51.03;47.92;;;;;;;2.71;100.00;101994.28;5049142;28;20057;-82
2023/02/05 10:03:59;;;;;;;49.28;46.38;;;;;;;2.91;100.00;101992.69;5052354;28;20072;-81
2023/02/05 10:06:46;;;;;;;50.88;47.88;;;;;;;3.05;100.00;101990.72;5050032;28;20127;-81
2023/02/05 10:09:32;;;;;;;51.85;48.78;;;;;;;2.41;100.00;101983.63;5048915;28;20042;-81
2023/02/05 10:12:05;;;;;;;50.97;48.00;;;;;;;3.04;100.00;101978.56;5046924;28;20045;-81
2023/02/05 10:14:44;;;;;;;51.17;48.17;;;;;;;3.29;100.00;101975.56;5046670;28;20115;-81
2023/02/05 10:17:23;;;;;;;50.80;47.80;;;;;;;3.04;100.00;101979.38;5040208;28;20542;-81
2023/02/05 10:20:07;;;;;;;49.90;46.90;;;;;;;3.31;100.00;101986.78;5028941;28;20061;-82
2023/02/05 10:22:43;;;;;;;51.75;48.75;;;;;;;3.33;100.00;101984.88;5029556;28;20045;-82
2023/02/05 10:25:41;;;;;;;53.90;50.58;;;;;;;2.70;100.00;101979.50;5027317;28;20136;-81
2023/02/05 10:28:26;;;;;;;51.65;48.65;;;;;;;3.28;100.00;101980.94;5018916;28;20046;-81
2023/02/05 10:30:58;;;;;;;51.35;47.97;;;;;;;3.33;100.00;101969.09;5018680;28;20053;-81
2023/02/05 10:33:47;;;;;;;50.90;47.92;;;;;;;3.33;100.00;101977.00;5019286;28;20058;-83
2023/02/05 10:36:15;;;;;;;50.03;47.13;;;;;;;2.71;100.00;101977.72;5024174;28;20050;-81
2023/02/05 10:38:43;;;;;;;52.25;49.08;;;;;;;2.60;100.00;101996.09;5029980;28;20054;-81
2023/02/05 10:41:23;;;;;;;53.92;50.55;;;;;;;2.27;100.00;101992.59;5030145;28;20176;-81
2023/02/05 10:43:53;;;;;;;52.13;49.05;;;;;;;2.51;100.00;101992.41;5030579;28;20111;-82
2023/02/05 10:46:20;;;;;;;53.70;50.28;;;;;;;2.37;100.00;101979.56;5031626;28;20077;-81
2023/02/05 10:48:54;;;;;;;51.67;48.58;;;;;;;2.58;100.00;101982.28;5032151;28;20112;-81
2023/02/05 10:51:30;;;;;;;52.60;49.45;;;;;;;2.46;100.00;101984.09;5029632;28;20053;-81
2023/02/05 10:53:58;;;;;;;52.75;49.65;;;;;;;2.74;100.00;101987.94;5038268;28;20045;-82
2023/02/05 10:56:26;;;;;;;51.50;48.50;;;;;;;3.27;100.00;101979.25;5026571;28;20045;-81
2023/02/05 10:58:54;;;;;;;52.35;49.38;;;;;;;3.03;100.00;101988.22;5030776;28;20490;-81
2023/02/05 11:01:22;;;;;;;51.30;48.30;;;;;;;2.66;100.00;101979.84;5029184;28;20080;-82
2023/02/05 11:03:55;;;;;;;51.85;48.65;;;;;;;2.52;100.00;101979.19;5021429;28;20050;-81
2023/02/05 11:06:25;;;;;;;51.20;48.20;;;;;;;2.36;100.00;101978.75;5020350;28;20431;-81
2023/02/05 11:08:52;;;;;;;52.38;49.28;;;;;;;2.11;100.00;101984.25;5020461;28;20084;-81
2023/02/05 11:11:26;;;;;;;51.72;48.72;;;;;;;2.41;100.00;101975.75;5019970;28;20050;-81
2023/02/05 11:13:57;;;;;;;51.63;48.53;;;;;;;2.08;100.00;101982.69;5020778;28;20042;-81
2023/02/05 11:16:34;;;;;;;52.92;49.75;;;;;;;2.38;100.00;101991.72;5031768;28;20045;-81
2023/02/05 11:19:01;;;;;;;51.58;48.58;;;;;;;2.17;100.00;101976.72;5032054;28;20076;-81
2023/02/05 11:21:47;;;;;;;51.28;48.17;;;;;;;2.65;100.00;101986.91;5035472;28;20045;-82
2023/02/05 11:24:31;;;;;;;52.85;49.75;;;;;;;2.11;100.00;101986.84;5027150;28;20065;-82
2023/02/05 11:27:22;;;;;;;50.00;47.15;;;;;;;2.66;100.00;101979.84;5030880;28;20108;-82
2023/02/05 11:29:50;;;;;;;53.80;50.60;;;;;;;1.52;100.00;101980.03;5037869;28;20045;-82
2023/02/05 11:32:21;;;;;;;52.72;49.63;;;;;;;1.26;100.00;101981.97;5035009;28;20050;-81
2023/02/05 11:34:47;;;;;;;51.25;48.20;;;;;;;1.99;100.00;101986.03;5032546;28;20081;-81
2023/02/05 11:37:17;;;;;;;53.03;49.92;;;;;;;1.71;100.00;101977.66;5037438;28;20103;-82
2023/02/05 11:39:46;;;;;;;51.33;48.22;;;;;;;2.12;100.00;101986.75;5030131;28;20053;-82
2023/02/05 11:42:18;;;;;;;51.38;48.35;;;;;;;2.10;100.00;101977.34;5032395;28;20073;-82
2023/02/05 11:44:51;;;;;;;55.65;51.70;;;;;;;1.25;100.00;101988.16;5033197;28;20478;-81
2023/02/05 11:47:26;;;;;;;63.63;58.67;;;;;;;1.56;100.00;101977.03;5032340;28;20111;-81
2023/02/05 11:49:54;;;;;;;72.53;64.93;;;;;;;1.54;100.00;101973.72;5031825;28;20054;-81
2023/02/05 11:52:26;;;;;;;62.85;58.15;;;;;;;1.28;100.00;101983.53;5034248;28;20539;-81
2023/02/05 11:54:53;;;;;;;56.17;52.67;;;;;;;0.88;100.00;101985.66;5031116;28;20133;-81
2023/02/05 11:57:32;;;;;;;54.67;51.17;;;;;;;1.23;100.00;102000.53;5030793;28;20053;-81
2023/02/05 12:00:18;;;;;;;53.17;50.05;;;;;;;1.15;100.00;102001.09;5031366;28;20050;-81
2023/02/05 12:02:48;;;;;;;54.47;51.08;;;;;;;0.55;100.00;101992.34;5030209;28;20527;-81
2023/02/05 12:05:19;;;;;;;53.25;49.97;;;;;;;0.60;100.00;101999.84;5029735;28;20420;-81
2023/02/05 12:07:51;;;;;;;53.78;50.38;;;;;;;0.97;100.00;101995.44;5028307;28;20125;-82
2023/02/05 12:10:25;;;;;;;58.15;54.10;;;;;;;1.19;100.00;101996.47;5030674;28;20049;-82
2023/02/05 12:13:03;;;;;;;70.78;64.13;;;;;;;1.03;100.00;102000.22;5028282;28;20575;-82
2023/02/05 12:15:37;;;;;;;60.83;56.28;;;;;;;0.36;100.00;102003.25;5034295;28;20129;-82
2023/02/05 12:18:17;;;;;;;58.13;53.97;;;;;;;0.59;100.00;102011.28;5029551;28;20077;-81
2023/02/05 12:20:51;;;;;;;57.40;53.30;;;;;;;0.45;100.00;102018.31;5029591;28;20107;-81
2023/02/05 12:23:30;;;;;;;53.67;50.28;;;;;;;0.07;100.00;102010.53;5022896;28;20470;-81
2023/02/05 12:26:26;;;;;;;53.17;50.03;;;;;;;0.44;100.00;102014.00;5025646;28;20080;-81
2023/02/05 12:29:07;;;;;;;51.83;48.63;;;;;;;0.91;100.00;102020.25;5032788;28;20049;-82
2023/02/05 12:31:52;;;;;;;55.50;51.78;;;;;;;0.71;100.00;102020.03;5035878;28;20107;-81
2023/02/05 12:34:26;;;;;;;51.75;48.65;;;;;;;0.93;100.00;102021.91;5021740;28;20111;-82
2023/02/05 12:37:09;;;;;;;54.85;51.35;;;;;;;0.63;100.00;102017.94;5031134;28;20119;-81
2023/02/05 12:39:40;;;;;;;51.85;48.55;;;;;;;0.49;100.00;102021.56;5025605;28;20103;-81
2023/02/05 12:42:21;;;;;;;53.17;49.78;;;;;;;0.43;100.00;102025.44;5029600;28;20046;-82
2023/02/05 12:45:03;;;;;;;55.88;52.13;;;;;;;0.14;100.00;102013.56;5029591;28;20074;-81
2023/02/05 12:47:55;;;;;;;53.40;50.00;;;;;;;-0.16;100.00;102021.72;5029035;28;20103;-81
2023/02/05 12:50:42;;;;;;;51.87;48.10;;;;;;;1.33;100.00;102036.38;5028104;28;20560;-82
2023/02/05 12:53:34;;;;;;;53.80;50.42;;;;;;;-0.02;100.00;102032.06;5023585;28;20291;-81
2023/02/05 12:56:20;;;;;;;53.00;49.78;;;;;;;0.09;100.00;102034.78;5016308;28;20053;-82
2023/02/05 12:58:53;;;;;;;55.58;51.70;;;;;;;0.74;100.00;102032.88;5020139;28;20046;-82
2023/02/05 13:01:23;;;;;;;56.70;52.83;;;;;;;0.02;100.00;102027.47;5020218;28;20049;-82
2023/02/05 13:03:56;;;;;;;55.20;51.40;;;;;;;0.03;100.00;102031.72;5029175;28;20131;-81
2023/02/05 13:06:28;;;;;;;54.72;51.17;;;;;;;-0.09;100.00;102039.50;5031268;28;20049;-81
2023/02/05 13:09:00;;;;;;;52.28;48.88;;;;;;;0.07;100.00;102046.28;5023444;28;20045;-82
2023/02/05 13:11:31;;;;;;;53.28;49.88;;;;;;;-0.14;100.00;102041.56;5030542;28;20049;-81
2023/02/05 13:14:02;;;;;;;55.85;52.10;;;;;;;-0.30;100.00;102048.78;5037252;28;20057;-81
2023/02/05 13:16:37;;;;;;;55.10;51.25;;;;;;;-0.56;100.00;102040.88;5031051;28;20111;-81
2023/02/05 13:19:15;;;;;;;52.88;49.47;;;;;;;0.05;100.00;102045.53;5030287;28;20077;-81
2023/02/05 13:30:18;;;;;;;52.03;48.83;;;;;;;-0.38;100.00;102041.44;5041212;28;20049;-81
2023/02/05 13:32:49;;;;;;;51.40;48.20;;;;;;;-0.41;100.00;102038.19;5036465;28;20091;-81
2023/02/05 13:35:18;;;;;;;52.20;48.70;;;;;;;-0.48;100.00;102043.00;5030963;28;20129;-81
2023/02/05 13:37:58;;;;;;;52.15;48.85;;;;;;;-0.37;100.00;102040.50;5042362;28;20485;-82
2023/02/05 13:41:03;;;;;;;52.20;49.00;;;;;;;-0.48;100.00;102043.81;5040378;28;20045;-81
2023/02/05 13:44:03;;;;;;;52.08;48.85;;;;;;;-0.59;100.00;102046.31;5037335;28;20548;-81
2023/02/05 13:46:51;;;;;;;56.20;52.40;;;;;;;-0.66;100.00;102052.88;5041799;28;20115;-81
2023/02/05 13:49:44;;;;;;;55.13;51.20;;;;;;;-0.44;100.00;102054.06;5030208;28;20050;-81
2023/02/05 13:52:27;;;;;;;57.13;53.00;;;;;;;-0.44;100.00;102052.28;5032658;28;20045;-81
2023/02/05 13:55:36;;;;;;;52.72;49.40;;;;;;;-0.32;100.00;102068.91;5039233;28;20107;-81
2023/02/05 13:58:18;;;;;;;53.40;50.03;;;;;;;-0.58;100.00;102065.41;5040912;28;20049;-82
2023/02/05 14:00:50;;;;;;;58.55;54.28;;;;;;;-0.56;100.00;102056.53;5037233;28;20083;-81
2023/02/05 14:03:26;;;;;;;;;;;;;;;-0.74;100.00;102055.97;5035030;28;20478;-81
2023/02/05 14:05:53;;;;;;;57.90;53.83;;;;;;;-0.69;100.00;102060.91;5029469;28;20011;-81
2023/02/05 14:08:25;;;;;;;59.20;55.00;;;;;;;-0.90;100.00;102063.13;5033260;28;20465;-82
2023/02/05 14:11:00;;;;;;;52.67;49.30;;;;;;;-0.86;100.00;102058.53;5030213;28;20042;-81
2023/02/05 14:13:30;;;;;;;57.47;53.40;;;;;;;-0.67;100.00;102056.41;5032568;28;20054;-81
2023/02/05 14:15:57;;;;;;;71.30;65.97;;;;;;;-0.83;100.00;102055.72;5028067;28;20055;-81
2023/02/05 14:18:47;;;;;;;63.47;58.90;;;;;;;-0.85;100.00;102054.97;4686735;28;9999748;-81
2023/02/05 14:21:49;;;;;;;61.50;56.70;;;;;;;-0.82;100.00;102062.59;5024704;28;20070;-82
2023/02/05 14:24:37;;;;;;;61.40;56.38;;;;;;;-0.86;100.00;102063.75;5025467;28;20457;-82
2023/02/05 14:27:19;;;;;;;66.45;61.00;;;;;;;-0.94;100.00;102066.84;5017472;28;20050;-82
2023/02/05 14:29:48;;;;;;;63.38;58.58;;;;;;;-1.19;100.00;102062.34;5030115;28;20095;-81
2023/02/05 14:32:59;;;;;;;78.20;71.60;;;;;;;-0.76;100.00;102070.03;5017357;28;20049;-81
2023/02/05 14:35:31;;;;;;;77.78;71.72;;;;;;;-0.93;100.00;102068.53;5023264;28;20491;-81
2023/02/05 14:38:01;;;;;;;74.25;68.45;;;;;;;-1.05;100.00;102075.38;5029556;28;20116;-81
2023/02/05 14:40:32;;;;;;;73.45;67.88;;;;;;;-1.15;100.00;102074.25;5019202;28;20060;-81
2023/02/05 14:43:05;;;;;;;73.78;68.28;;;;;;;-1.09;100.00;102084.31;5021987;28;20104;-81
2023/02/05 14:45:32;;;;;;;62.55;58.15;;;;;;;-1.04;100.00;102084.03;5023429;28;20049;-82
2023/02/05 14:48:01;;;;;;;56.50;52.63;;;;;;;-1.13;100.00;102075.00;5021413;28;20050;-81
2023/02/05 14:50:29;;;;;;;70.70;64.95;;;;;;;-1.24;100.00;102083.50;5024168;28;20112;-81
2023/02/05 14:52:59;;;;;;;73.93;68.60;;;;;;;-1.30;100.00;102077.81;5033111;28;20057;-81
2023/02/05 14:55:31;;;;;;;74.13;68.63;;;;;;;-1.22;100.00;102075.56;5024559;28;20054;-82
2023/02/05 14:58:01;;;;;;;53.80;50.30;;;;;;;-1.25;100.00;102075.78;5028738;28;20057;-81
2023/02/05 15:00:32;;;;;;;54.72;51.10;;;;;;;-1.26;100.00;102080.16;5023234;28;20299;-82
2023/02/05 15:03:22;;;;;;;55.20;51.42;;;;;;;-1.40;100.00;102072.34;5030807;28;20053;-81
2023/02/05 15:05:57;;;;;;;55.63;51.92;;;;;;;-1.40;100.00;102078.38;5014153;28;20495;-81
2023/02/05 15:08:39;;;;;;;59.30;54.42;;;;;;;-1.53;100.00;102080.09;5026367;28;20061;-81
2023/02/05 15:11:13;;;;;;;54.80;51.10;;;;;;;-1.41;100.00;102083.72;5022927;28;20045;-81
2023/02/05 15:13:40;;;;;;;57.55;53.47;;;;;;;-1.41;100.00;102088.94;5023892;28;20057;-81
2023/02/05 15:16:17;;;;;;;62.63;57.83;;;;;;;-1.57;100.00;102082.97;5023927;28;20042;-81
2023/02/05 15:18:47;;;;;;;58.42;54.30;;;;;;;-1.25;100.00;102089.63;5023480;28;20068;-81
2023/02/05 15:21:19;;;;;;;56.95;53.10;;;;;;;-1.48;100.00;102093.69;5026032;28;20719;-81
2023/02/05 15:23:51;;;;;;;56.13;52.33;;;;;;;-1.62;100.00;102080.66;5021473;28;20466;-81
2023/02/05 15:26:23;;;;;;;56.17;52.33;;;;;;;-1.66;100.00;102084.38;5021826;28;20151;-81
2023/02/05 15:28:58;;;;;;;57.50;53.50;;;;;;;-1.73;100.00;102085.66;5020026;28;20589;-81
2023/02/05 15:31:33;;;;;;;57.13;53.40;;;;;;;-1.90;100.00;102084.94;5026130;28;20103;-81
2023/02/05 15:34:22;;;;;;;58.42;54.63;;;;;;;-1.89;100.00;102091.78;5024938;28;20058;-81
2023/02/05 15:36:53;;;;;;;62.15;57.42;;;;;;;-1.89;100.00;102089.19;5018866;28;20049;-81
2023/02/05 15:39:29;;;;;;;61.47;56.17;;;;;;;-1.92;100.00;102099.78;5017275;28;20045;-81
2023/02/05 15:41:58;;;;;;;62.30;57.47;;;;;;;-2.00;100.00;102104.59;5018004;28;20054;-81
2023/02/05 15:44:28;;;;;;;56.75;52.83;;;;;;;-1.63;100.00;102100.66;5019842;28;20041;-81
2023/02/05 15:46:57;;;;;;;62.72;57.78;;;;;;;-1.91;100.00;102116.25;5026208;28;20495;-81
2023/02/05 15:49:31;;;;;;;54.17;50.67;;;;;;;-1.87;100.00;102113.38;5018009;28;20053;-81
2023/02/05 15:52:00;;;;;;;54.42;50.65;;;;;;;-1.80;100.00;102121.66;5026622;28;20045;-81
2023/02/05 15:54:27;;;;;;;53.10;49.72;;;;;;;-1.73;100.00;102120.38;5022561;28;20049;-82
2023/02/05 15:56:54;;;;;;;55.63;51.92;;;;;;;-1.92;100.00;102123.22;5033018;28;20061;-81
2023/02/05 15:59:26;;;;;;;55.20;51.50;;;;;;;-1.77;100.00;102133.69;5028375;28;20523;-81
2023/02/05 16:02:01;;;;;;;54.27;50.77;;;;;;;-1.77;100.00;102131.06;5027416;28;20535;-81
2023/02/05 16:04:31;;;;;;;65.15;60.42;;;;;;;-1.85;100.00;102135.00;5036061;28;20312;-81
2023/02/05 16:06:59;;;;;;;65.68;59.55;;;;;;;-1.78;100.00;102132.84;5034821;28;20572;-81
2023/02/05 16:09:28;;;;;;;66.63;60.92;;;;;;;-1.75;100.00;102134.44;5033530;28;20046;-81
2023/02/05 16:11:55;;;;;;;67.57;62.53;;;;;;;-1.71;100.00;102138.53;5034493;28;20095;-81
2023/02/05 16:14:23;;;;;;;65.88;60.88;;;;;;;-1.78;100.00;102147.66;5033004;28;20554;-81
2023/02/05 16:17:02;;;;;;;63.65;59.00;;;;;;;-1.77;100.00;102151.91;5020230;28;20045;-81
2023/02/05 16:19:35;;;;;;;71.03;65.45;;;;;;;-1.72;100.00;102161.13;5026958;28;20053;-81
2023/02/05 16:22:14;;;;;;;69.03;62.95;;;;;;;-1.77;100.00;102150.16;5035176;28;20470;-81
2023/02/05 16:24:45;;;;;;;72.00;66.28;;;;;;;-1.85;100.00;102155.81;5033844;28;20107;-82
2023/02/05 16:27:16;;;;;;;73.13;67.20;;;;;;;-1.91;100.00;102173.53;5031569;28;20573;-81
2023/02/05 16:29:48;;;;;;;71.13;65.63;;;;;;;-1.82;100.00;102164.38;5030345;28;20481;-81
2023/02/05 16:32:22;;;;;;;78.63;71.97;;;;;;;-1.85;100.00;102162.78;5033921;28;20401;-81
2023/02/05 16:34:50;;;;;;;74.43;68.53;;;;;;;-1.96;100.00;102162.59;5031309;28;20042;-81
2023/02/05 16:37:19;;;;;;;73.03;67.30;;;;;;;-1.82;100.00;102161.75;5035124;28;20107;-81
2023/02/05 16:39:52;;;;;;;58.95;54.75;;;;;;;-1.93;100.00;102168.44;5029906;28;20049;-81
2023/02/05 16:42:31;;;;;;;62.88;58.22;;;;;;;-1.89;100.00;102164.72;5031287;28;20077;-81
2023/02/05 16:45:27;;;;;;;52.13;48.80;;;;;;;-1.95;100.00;102166.84;5083295;27;20386;-80
2023/02/05 16:48:23;;;;;;;54.03;50.42;;;;;;;-1.91;100.00;102169.19;5068435;28;20144;-81
2023/02/05 16:50:50;;;;;;;50.95;47.70;;;;;;;-1.88;100.00;102171.59;5055444;28;20049;-80
2023/02/05 16:53:20;;;;;;;58.38;53.38;;;;;;;-1.99;100.00;102174.00;5052195;28;20053;-80
2023/02/05 16:55:48;;;;;;;57.05;52.95;;;;;;;-1.95;100.00;102177.28;5059204;28;20052;-81
2023/02/05 16:58:21;;;;;;;64.85;58.55;;;;;;;-2.11;100.00;102169.50;5056481;28;20510;-80
2023/02/05 17:03:18;;;;;;;58.60;54.05;;;;;;;-2.13;100.00;102176.56;5075966;27;20390;-81
2023/02/05 17:05:53;;;;;;;57.55;52.88;;;;;;;-2.23;100.00;102181.47;5070634;28;20044;-80
2023/02/05 17:08:30;;;;;;;51.45;48.17;;;;;;;-2.03;100.00;102179.47;5071509;28;20106;-81
2023/02/05 17:10:59;;;;;;;53.10;49.53;;;;;;;-2.19;100.00;102187.31;5078369;28;20127;-80
2023/02/05 17:13:28;;;;;;;51.92;48.72;;;;;;;-2.09;100.00;102184.13;5071350;28;20118;-80
2023/02/05 17:15:55;;;;;;;51.08;47.70;;;;;;;-2.30;100.00;102182.72;5070404;28;20399;-81
2023/02/05 17:18:26;;;;;;;55.25;50.83;;;;;;;-2.28;100.00;102187.84;5071293;28;20055;-81
2023/02/05 17:21:29;;;;;;;56.22;51.80;;;;;;;-2.22;100.00;102190.09;5065857;28;20321;-81
2023/02/05 17:23:58;;;;;;;54.83;50.63;;;;;;;-2.31;100.00;102176.66;5072047;28;20082;-80
2023/02/05 17:26:27;;;;;;;54.03;50.05;;;;;;;-2.34;100.00;102176.00;5071556;28;20048;-80
2023/02/05 17:28:56;;;;;;;55.20;51.25;;;;;;;-2.37;100.00;102173.59;5071420;28;20041;-81
2023/02/05 17:31:25;;;;;;;52.33;48.33;;;;;;;-2.27;100.00;102176.50;5067651;28;20051;-80
2023/02/05 17:33:55;;;;;;;56.15;52.10;;;;;;;-2.47;100.00;102177.63;5074924;28;20135;-80
2023/02/05 17:36:22;;;;;;;61.25;56.30;;;;;;;-2.28;100.00;102172.22;5074515;28;20044;-80
2023/02/05 17:38:50;;;;;;;62.50;57.85;;;;;;;-2.31;100.00;102184.47;5076069;28;20502;-80
2023/02/05 17:44:04;;;;;;;58.00;53.20;;;;;;;-2.33;100.00;102183.75;5075800;28;20582;-81
2023/02/05 17:46:31;;;;;;;54.80;50.90;;;;;;;-2.33;100.00;102185.47;5071654;28;20045;-80
2023/02/05 17:48:59;;;;;;;53.85;50.20;;;;;;;-2.24;100.00;102178.94;5077522;28;20106;-80
2023/02/05 17:51:26;;;;;;;54.67;50.78;;;;;;;-2.34;100.00;102189.03;5071890;28;20041;-80
2023/02/05 17:53:53;;;;;;;59.03;54.47;;;;;;;-2.38;100.00;102185.75;5077917;28;20044;-80
2023/02/05 17:56:20;;;;;;;56.85;52.88;;;;;;;-2.39;100.00;102180.63;5070436;28;20161;-80
2023/02/05 17:58:49;;;;;;;52.92;49.22;;;;;;;-2.39;100.00;102178.88;5069353;28;20110;-82
2023/02/05 18:01:16;;;;;;;54.75;50.67;;;;;;;-2.36;100.00;102180.44;5074640;28;20045;-81
2023/02/05 18:03:43;;;;;;;58.03;52.70;;;;;;;-2.48;100.00;102165.53;5074151;28;20040;-80
2023/02/05 18:06:13;;;;;;;53.10;49.30;;;;;;;-2.37;100.00;102194.41;5076553;28;20048;-81
2023/02/05 18:08:39;;;;;;;53.22;48.97;;;;;;;-2.34;100.00;102181.22;5068479;28;20060;-80
2023/02/05 18:11:06;;;;;;;52.00;48.13;;;;;;;-2.34;100.00;102181.22;5074533;28;20422;-81
2023/02/05 18:13:34;;;;;;;52.72;48.47;;;;;;;-2.55;100.00;102178.03;5067560;28;20045;-80
2023/02/05 18:16:02;;;;;;;53.60;49.72;;;;;;;-2.40;100.00;102190.19;5060888;28;20511;-80
2023/02/05 18:18:30;;;;;;;55.55;51.17;;;;;;;-2.42;100.00;102186.00;5059885;28;20049;-80
2023/02/05 18:20:57;;;;;;;59.97;54.20;;;;;;;-2.38;100.00;102184.94;5058387;28;20103;-81
2023/02/05 18:23:27;;;;;;;62.97;56.55;;;;;;;-2.40;100.00;102178.97;5055399;28;20049;-80
2023/02/05 18:25:55;;;;;;;60.92;54.63;;;;;;;-2.41;100.00;102185.94;5055349;28;20041;-81
2023/02/05 18:28:21;;;;;;;62.40;55.90;;;;;;;-2.40;100.00;102185.00;5055245;28;20560;-80
2023/02/05 18:30:56;;;;;;;58.70;53.88;;;;;;;-2.46;100.00;102184.50;5056135;28;20099;-81
2023/02/05 18:33:22;;;;;;;55.63;51.53;;;;;;;-2.49;100.00;102190.72;5056439;28;20037;-80
2023/02/05 18:35:49;;;;;;;52.45;48.75;;;;;;;-2.46;100.00;102190.53;5056498;28;20041;-80
2023/02/05 18:38:16;;;;;;;52.00;48.55;;;;;;;-2.53;100.00;102184.84;5056699;28;20056;-81
2023/02/05 18:40:44;;;;;;;53.08;49.50;;;;;;;-2.59;100.00;102186.97;5058130;28;20378;-81
2023/02/05 18:43:12;;;;;;;54.25;50.47;;;;;;;-2.64;100.00;102179.38;5059427;28;20048;-80
2023/02/05 18:45:39;;;;;;;54.00;50.45;;;;;;;-2.65;100.00;102195.09;5052913;28;20079;-81
2023/02/05 18:48:06;;;;;;;53.58;50.00;;;;;;;-2.74;100.00;102193.84;5051851;28;20052;-80
2023/02/05 18:50:32;;;;;;;53.85;50.45;;;;;;;-2.81;100.00;102187.31;5059551;28;20106;-80
2023/02/05 18:52:59;;;;;;;52.83;49.17;;;;;;;-2.72;100.00;102198.94;5058601;28;20110;-82
2023/02/05 18:55:27;;;;;;;53.95;50.15;;;;;;;-2.85;100.00;102193.56;5025664;28;20499;-80